FMMI/TNR METAR and TAF weather

Enter ICAO airport designator
Station Type Date Time Source
FMMI METAR 2018/09/21 23:30 UTC NOAA

FMMI 212330Z 09004KT 9999 FEW020 11/10 Q1022 NOSIG


Station Type Date Time Source
FMMI Decoded METAR 2018/09/21 23:30 UTC NOAA

Antananarivo / Ivato, Madagascar (FMMI) 18-48S 047-29E 1276M
Sep 21, 2018 - 07:30 PM EDT / 2018.09.21 2330 UTC
Wind: from the E (090 degrees) at 5 MPH (4 KT):0
Visibility: greater than 7 mile(s):0
Sky conditions: mostly clear
Temperature: 51 F (11 C)
Dew Point: 50 F (10 C)
Relative Humidity: 93%
Pressure (altimeter): 30.18 in. Hg (1022 hPa)
ob: FMMI 212330Z 09004KT 9999 FEW020 11/10 Q1022 NOSIG
cycle: 23

Station Type Date Time Source
FMMI TAF 2018/09/21 18:06 UTC NOAA

TAF FMMI 211700Z 2118/2224 12010KT 9999 FEW020


Example: see airport list